Time;durP1;ratioP1;P1;durP2;ratioP2;P2;SDS_P1;SDS_P2;PMS_P1;PMS_P2;Temp;Humidity;BMP_temperature;BMP_pressure;BME280_temperature;BME280_humidity;BME280_pressure;Samples;Min_cycle;Max_cycle;Signal;HPM_P1;HPM_P2
2022/08/15 00:00:13;;;;;;;11.10;7.53;;;22.90;99.90;;;;;;5010940;28;20037;-72
2022/08/15 00:02:43;;;;;;;10.25;7.07;;;22.90;99.90;;;;;;4993148;28;20034;-72
2022/08/15 00:05:16;;;;;;;9.32;6.85;;;22.90;99.90;;;;;;4993167;28;20046;-72
2022/08/15 00:07:42;;;;;;;10.55;7.03;;;22.90;99.90;;;;;;4993083;28;20034;-71
2022/08/15 00:10:08;;;;;;;10.03;7.70;;;22.90;99.90;;;;;;4992876;28;20021;-72
2022/08/15 00:12:35;;;;;;;7.75;6.88;;;22.80;99.90;;;;;;4992137;28;20532;-71
2022/08/15 00:15:06;;;;;;;11.13;7.25;;;22.80;99.90;;;;;;4985593;28;20096;-71
2022/08/15 00:17:32;;;;;;;10.27;6.53;;;22.80;99.90;;;;;;4999482;28;20030;-71
2022/08/15 00:19:57;;;;;;;8.30;6.97;;;22.80;99.90;;;;;;5020668;28;20556;-71
2022/08/15 00:22:23;;;;;;;8.00;7.00;;;22.80;99.90;;;;;;5013757;28;20391;-71
2022/08/15 00:24:49;;;;;;;8.60;7.20;;;22.80;99.90;;;;;;5017244;28;20767;-71
2022/08/15 00:27:15;;;;;;;9.70;6.63;;;22.80;99.90;;;;;;5010360;28;20438;-71
2022/08/15 00:29:41;;;;;;;9.23;6.77;;;22.80;99.90;;;;;;5013631;28;20033;-71
2022/08/15 00:32:13;;;;;;;9.93;6.25;;;22.80;99.90;;;;;;5015197;28;20276;-71
2022/08/15 00:34:38;;;;;;;9.27;7.20;;;22.80;99.90;;;;;;4992522;28;20038;-71
2022/08/15 00:37:05;;;;;;;8.57;6.40;;;22.80;99.90;;;;;;5011633;28;20112;-71
2022/08/15 00:39:31;;;;;;;10.02;7.22;;;22.80;99.90;;;;;;5010198;28;20528;-72
2022/08/15 00:41:58;;;;;;;10.88;7.35;;;22.80;99.90;;;;;;5010392;28;20358;-73
2022/08/15 00:44:34;;;;;;;9.07;6.88;;;22.80;99.90;;;;;;5010016;28;20493;-72
2022/08/15 00:47:04;;;;;;;10.02;6.50;;;22.80;99.90;;;;;;4974659;28;20038;-72
2022/08/15 00:49:31;;;;;;;7.50;6.45;;;22.70;99.90;;;;;;4990693;28;20034;-73
2022/08/15 00:52:12;;;;;;;9.23;6.45;;;22.70;99.90;;;;;;5008790;28;20026;-72
2022/08/15 00:54:56;;;;;;;8.77;6.78;;;22.80;99.90;;;;;;4979927;28;20026;-72
2022/08/15 00:57:38;;;;;;;8.95;5.80;;;22.70;99.90;;;;;;4982707;28;20053;-73
2022/08/15 01:00:16;;;;;;;8.43;6.55;;;22.70;99.90;;;;;;4996716;28;20030;-73
2022/08/15 01:02:42;;;;;;;8.48;6.72;;;22.70;99.90;;;;;;5013909;28;20034;-73
2022/08/15 01:05:10;;;;;;;8.07;6.60;;;22.70;99.90;;;;;;5014031;28;20374;-72
2022/08/15 01:07:36;;;;;;;8.23;6.93;;;22.70;99.90;;;;;;4996689;28;20033;-73
2022/08/15 01:10:03;;;;;;;9.67;7.07;;;22.70;99.90;;;;;;5013726;28;20070;-72
2022/08/15 01:12:30;;;;;;;11.57;6.97;;;22.70;99.90;;;;;;4979795;28;20037;-72
2022/08/15 01:15:09;;;;;;;10.18;7.13;;;22.70;99.90;;;;;;5013147;28;20058;-72
2022/08/15 01:17:35;;;;;;;8.43;6.68;;;22.60;99.90;;;;;;4980117;28;20057;-73
2022/08/15 01:20:20;;;;;;;9.68;7.15;;;22.60;99.90;;;;;;4998157;28;20120;-72
2022/08/15 01:23:10;;;;;;;9.05;6.63;;;22.60;99.90;;;;;;4990225;28;20061;-72
2022/08/15 01:25:57;;;;;;;8.80;7.43;;;22.60;99.90;;;;;;5013629;28;20049;-72
2022/08/15 01:28:31;;;;;;;7.75;6.15;;;22.50;99.90;;;;;;5012439;28;20030;-73
2022/08/15 01:31:13;;;;;;;8.00;6.55;;;22.50;99.90;;;;;;4996830;28;20026;-72
2022/08/15 01:33:48;;;;;;;8.02;6.43;;;22.50;99.90;;;;;;5013381;28;20034;-72
2022/08/15 01:36:14;;;;;;;9.38;7.53;;;22.50;99.90;;;;;;5013763;28;20123;-73
2022/08/15 01:38:44;;;;;;;9.70;6.75;;;22.50;99.90;;;;;;5018369;23;20050;-72
2022/08/15 01:41:29;;;;;;;9.85;7.30;;;22.50;99.90;;;;;;4992858;28;20061;-72
2022/08/15 01:44:13;;;;;;;9.50;7.25;;;22.50;99.90;;;;;;4994273;28;20045;-72
2022/08/15 01:46:55;;;;;;;9.00;7.47;;;22.50;99.90;;;;;;4994344;28;20072;-72
2022/08/15 01:49:28;;;;;;;7.10;6.38;;;22.50;99.90;;;;;;4974440;28;20113;-72
2022/08/15 01:51:55;;;;;;;9.13;7.15;;;22.50;99.90;;;;;;4958920;28;20035;-72
2022/08/15 01:54:20;;;;;;;9.02;7.22;;;22.50;99.90;;;;;;4957854;28;20356;-72
2022/08/15 01:56:46;;;;;;;10.03;7.77;;;22.40;99.90;;;;;;4957830;28;20058;-72
2022/08/15 01:59:21;;;;;;;8.80;7.63;;;22.40;99.90;;;;;;4974059;28;20028;-72
2022/08/15 02:01:57;;;;;;;8.98;7.35;;;22.30;99.90;;;;;;4974072;28;20380;-72
2022/08/15 02:04:31;;;;;;;9.93;8.05;;;22.30;99.90;;;;;;4957756;28;20445;-73
2022/08/15 02:07:00;;;;;;;9.23;7.18;;;22.20;99.90;;;;;;4958988;28;20049;-72
2022/08/15 02:09:26;;;;;;;10.15;7.85;;;22.30;99.90;;;;;;4975018;28;20034;-73
2022/08/15 02:11:52;;;;;;;10.17;7.77;;;22.20;99.90;;;;;;4957515;28;20166;-73
2022/08/15 02:14:20;;;;;;;11.07;6.90;;;22.20;99.90;;;;;;4973399;28;20662;-73
2022/08/15 02:16:46;;;;;;;10.57;7.65;;;22.10;99.90;;;;;;4973722;28;20383;-72
2022/08/15 02:19:12;;;;;;;8.93;6.65;;;22.10;99.90;;;;;;4973281;28;20479;-72
2022/08/15 02:21:40;;;;;;;10.07;7.25;;;22.20;99.90;;;;;;4974857;28;20045;-72
2022/08/15 02:24:13;;;;;;;8.43;6.43;;;22.10;99.90;;;;;;4973323;28;20121;-73
2022/08/15 02:26:39;;;;;;;10.68;7.25;;;22.10;99.90;;;;;;4957744;28;20173;-73
2022/08/15 02:29:05;;;;;;;10.77;8.03;;;22.10;99.90;;;;;;4973426;28;20030;-73
2022/08/15 02:31:31;;;;;;;9.80;6.88;;;22.10;99.90;;;;;;4957410;28;20490;-72
2022/08/15 02:34:00;;;;;;;11.17;7.93;;;22.10;99.90;;;;;;4973184;28;20093;-72
2022/08/15 02:36:27;;;;;;;9.93;8.10;;;22.00;99.90;;;;;;4957751;28;20860;-73
2022/08/15 02:38:53;;;;;;;9.15;7.85;;;22.00;99.90;;;;;;4941429;28;20473;-73
2022/08/15 02:41:31;;;;;;;9.73;7.05;;;22.00;99.90;;;;;;4973600;28;20097;-73
2022/08/15 02:43:59;;;;;;;9.82;7.30;;;22.00;99.90;;;;;;4973052;28;20057;-72
2022/08/15 02:46:29;;;;;;;10.00;7.65;;;21.90;99.90;;;;;;4973018;28;20037;-72
2022/08/15 02:48:57;;;;;;;8.60;7.15;;;21.90;99.90;;;;;;4974352;28;20430;-72
2022/08/15 02:51:23;;;;;;;8.63;6.88;;;21.90;99.90;;;;;;4973442;28;20156;-72
2022/08/15 02:53:50;;;;;;;12.40;7.90;;;21.80;99.90;;;;;;4972841;28;20459;-73
2022/08/15 02:56:22;;;;;;;10.13;7.68;;;21.80;99.90;;;;;;4972759;28;20046;-73
2022/08/15 02:58:48;;;;;;;10.40;7.30;;;21.70;99.90;;;;;;4974142;28;20027;-73
2022/08/15 03:01:14;;;;;;;11.75;7.35;;;21.70;99.90;;;;;;4938244;28;20113;-73
2022/08/15 03:03:44;;;;;;;13.45;8.20;;;21.60;99.90;;;;;;4969501;28;20146;-73
2022/08/15 03:06:12;;;;;;;12.40;8.07;;;21.70;99.90;;;;;;4972769;28;20034;-73
2022/08/15 03:08:38;;;;;;;10.45;7.90;;;21.60;99.90;;;;;;4972688;28;20026;-74
2022/08/15 03:11:06;;;;;;;11.50;7.80;;;21.60;99.90;;;;;;4971537;28;20037;-73
2022/08/15 03:13:32;;;;;;;10.18;7.97;;;21.60;99.90;;;;;;4988450;28;20411;-73
2022/08/15 03:15:58;;;;;;;10.05;7.47;;;21.70;99.90;;;;;;4988153;28;20019;-74
2022/08/15 03:18:30;;;;;;;9.95;7.80;;;21.70;99.90;;;;;;4972668;28;20037;-73
2022/08/15 03:20:57;;;;;;;11.52;8.07;;;21.70;99.90;;;;;;4988149;28;20514;-74
2022/08/15 03:23:25;;;;;;;9.88;8.10;;;21.70;99.90;;;;;;4988347;28;20026;-74
2022/08/15 03:25:52;;;;;;;10.77;7.95;;;21.70;99.90;;;;;;4972040;28;20035;-73
2022/08/15 03:28:23;;;;;;;9.52;7.57;;;21.70;99.90;;;;;;4988507;28;20039;-73
2022/08/15 03:30:50;;;;;;;9.80;7.65;;;21.70;99.90;;;;;;4992556;28;20026;-73
2022/08/15 03:33:16;;;;;;;9.35;8.00;;;21.70;99.90;;;;;;4971464;28;20049;-74
2022/08/15 03:35:47;;;;;;;10.13;7.72;;;21.70;99.90;;;;;;4970797;28;20035;-74
2022/08/15 03:38:13;;;;;;;9.05;7.68;;;21.70;99.90;;;;;;4956024;28;20518;-74
2022/08/15 03:40:40;;;;;;;10.00;7.55;;;21.70;99.90;;;;;;4971394;28;20066;-74
2022/08/15 03:43:10;;;;;;;11.70;8.15;;;21.70;99.90;;;;;;4956007;28;20034;-74
2022/08/15 03:45:35;;;;;;;10.23;8.27;;;21.70;99.90;;;;;;4972219;28;20038;-73
2022/08/15 03:48:02;;;;;;;12.60;8.23;;;21.70;99.90;;;;;;4973132;28;20535;-74
2022/08/15 03:50:32;;;;;;;10.95;8.27;;;21.70;99.90;;;;;;4972102;28;20502;-74
2022/08/15 03:53:03;;;;;;;10.70;7.43;;;21.60;99.90;;;;;;4971697;28;20118;-74
2022/08/15 03:55:30;;;;;;;13.20;7.40;;;21.60;99.90;;;;;;4956108;28;20034;-74
2022/08/15 03:57:57;;;;;;;11.30;8.18;;;21.60;99.90;;;;;;4971625;28;20400;-74
2022/08/15 04:00:26;;;;;;;11.55;8.80;;;21.60;99.90;;;;;;4971894;28;20066;-74
2022/08/15 04:02:53;;;;;;;13.93;8.38;;;21.50;99.90;;;;;;4987688;28;20043;-74
2022/08/15 04:05:20;;;;;;;13.38;8.68;;;21.50;99.90;;;;;;4972933;28;20035;-74
2022/08/15 04:07:46;;;;;;;12.02;8.75;;;21.50;99.90;;;;;;4972965;28;20458;-74
2022/08/15 04:10:15;;;;;;;13.18;8.63;;;21.50;99.90;;;;;;4971526;28;20066;-73
2022/08/15 04:12:43;;;;;;;10.27;8.40;;;21.50;99.90;;;;;;4971468;28;20038;-73
2022/08/15 04:15:12;;;;;;;12.75;8.65;;;21.40;99.90;;;;;;4971481;28;20399;-73
2022/08/15 04:17:38;;;;;;;11.05;8.15;;;21.30;99.90;;;;;;4955695;28;20030;-73
2022/08/15 04:20:05;;;;;;;12.10;9.07;;;21.20;99.90;;;;;;4972355;28;20030;-73
2022/08/15 04:22:35;;;;;;;15.25;9.02;;;21.10;99.90;;;;;;4939638;28;20159;-73
2022/08/15 04:25:29;;;;;;;10.68;8.07;;;21.10;99.90;;;;;;4955545;28;20494;-73
2022/08/15 04:27:58;;;;;;;12.73;8.40;;;21.10;99.90;;;;;;4972867;28;20031;-73
2022/08/15 04:30:36;;;;;;;14.82;8.20;;;21.00;99.90;;;;;;4955565;28;20022;-74
2022/08/15 04:33:16;;;;;;;11.85;9.07;;;21.00;99.90;;;;;;4987402;28;20035;-73
2022/08/15 04:35:46;;;;;;;14.40;8.85;;;21.00;99.90;;;;;;4955279;28;20022;-72
2022/08/15 04:38:12;;;;;;;12.25;8.43;;;20.90;99.90;;;;;;4987439;28;20034;-72
2022/08/15 04:40:38;;;;;;;;;;;20.90;99.90;;;;;;4986709;28;20035;-72
2022/08/15 04:43:04;;;;;;;13.85;8.65;;;20.90;99.90;;;;;;4971107;28;19910;-72
2022/08/15 04:45:32;;;;;;;11.60;7.90;;;20.90;99.90;;;;;;4972645;28;20487;-73
2022/08/15 04:48:02;;;;;;;13.35;9.25;;;20.90;99.90;;;;;;4955316;28;20038;-73
2022/08/15 04:50:34;;;;;;;12.38;8.45;;;20.90;99.90;;;;;;4971325;28;20034;-73
2022/08/15 04:53:00;;;;;;;12.90;8.48;;;20.90;99.90;;;;;;4971117;28;20268;-73
2022/08/15 04:55:26;;;;;;;12.60;8.93;;;20.90;99.90;;;;;;4955171;28;20536;-73
2022/08/15 04:57:52;;;;;;;10.57;8.80;;;21.00;99.90;;;;;;4970617;28;20273;-72
2022/08/15 05:00:20;;;;;;;14.57;9.32;;;21.00;99.90;;;;;;4971376;28;20517;-73
2022/08/15 05:03:05;;;;;;;12.82;8.32;;;21.00;99.90;;;;;;4975306;28;20562;-72
2022/08/15 05:05:33;;;;;;;15.25;8.20;;;21.00;99.90;;;;;;4968286;28;20035;-72
2022/08/15 05:07:59;;;;;;;11.50;8.52;;;21.10;99.90;;;;;;4972621;28;20414;-73
2022/08/15 05:10:26;;;;;;;14.20;7.67;;;21.00;99.90;;;;;;4980599;28;20045;-72
2022/08/15 05:12:52;;;;;;;12.73;8.10;;;21.10;99.90;;;;;;4986171;28;20047;-72
2022/08/15 05:15:18;;;;;;;10.20;7.17;;;21.10;99.90;;;;;;4986103;28;20115;-73
2022/08/15 05:17:47;;;;;;;11.10;7.70;;;21.10;99.90;;;;;;4981603;28;20491;-73
2022/08/15 05:20:14;;;;;;;11.68;7.57;;;21.10;99.90;;;;;;4988228;28;20407;-72
2022/08/15 05:23:09;;;;;;;;;;;21.20;99.90;;;;;;4990832;28;20158;-72
2022/08/15 05:25:38;;;;;;;12.38;7.70;;;21.20;99.90;;;;;;4990272;28;19914;-74
2022/08/15 05:28:03;;;;;;;9.77;7.72;;;21.20;99.90;;;;;;4990337;28;20379;-72
2022/08/15 05:30:29;;;;;;;11.17;7.27;;;21.30;99.90;;;;;;4974172;28;20117;-73
2022/08/15 05:33:14;;;;;;;12.77;7.95;;;21.30;99.90;;;;;;4989747;28;20041;-73
2022/08/15 05:35:44;;;;;;;14.55;7.68;;;21.30;99.90;;;;;;4989233;28;20049;-76
2022/08/15 05:38:21;;;;;;;14.32;7.20;;;21.30;99.90;;;;;;4989084;28;20085;-76
2022/08/15 05:41:08;;;;;;;9.27;6.82;;;21.40;99.90;;;;;;4957658;28;20050;-76
2022/08/15 05:44:03;;;;;;;11.88;7.13;;;21.50;99.90;;;;;;4974689;28;20113;-76
2022/08/15 05:47:06;;;;;;;10.50;6.57;;;21.50;99.90;;;;;;4972802;28;20027;-76
2022/08/15 05:49:44;;;;;;;11.85;5.97;;;21.70;99.90;;;;;;4973742;28;20033;-76
2022/08/15 05:52:39;;;;;;;12.05;5.90;;;21.80;99.90;;;;;;4974988;28;20034;-76
2022/08/15 05:55:17;;;;;;;11.35;6.53;;;21.80;99.90;;;;;;4956851;28;20114;-76
2022/08/15 05:58:10;;;;;;;9.15;5.88;;;21.90;99.90;;;;;;4973585;28;20462;-76
2022/08/15 06:00:36;;;;;;;13.18;6.30;;;21.90;99.90;;;;;;4974720;28;20034;-76
2022/08/15 06:03:14;;;;;;;11.20;6.38;;;22.00;99.90;;;;;;4972313;28;20027;-76
2022/08/15 06:05:46;;;;;;;8.68;6.22;;;22.00;99.90;;;;;;4958444;28;20117;-76
2022/08/15 06:08:32;;;;;;;12.40;5.40;;;22.10;99.90;;;;;;4957311;28;20034;-76
2022/08/15 06:11:11;;;;;;;8.80;4.57;;;22.10;99.90;;;;;;4959272;28;20027;-76
2022/08/15 06:14:23;;;;;;;9.75;4.70;;;22.20;99.90;;;;;;4959692;28;20030;-76
2022/08/15 06:16:55;;;;;;;7.60;5.20;;;22.30;99.90;;;;;;4973825;28;20034;-76
2022/08/15 06:19:27;;;;;;;11.15;4.45;;;22.40;99.90;;;;;;4958722;28;20072;-76
2022/08/15 06:22:17;;;;;;;7.55;4.20;;;22.40;99.90;;;;;;4958721;28;20395;-73
2022/08/15 06:25:16;;;;;;;7.03;4.03;;;22.40;99.90;;;;;;4965333;28;20030;-72
2022/08/15 06:27:54;;;;;;;8.85;4.55;;;22.50;99.90;;;;;;4970672;28;20395;-72
2022/08/15 06:30:25;;;;;;;10.02;3.30;;;22.50;99.90;;;;;;4994044;28;20530;-73
2022/08/15 06:33:04;;;;;;;11.40;3.70;;;22.60;99.90;;;;;;4964580;28;20042;-73
2022/08/15 06:35:39;;;;;;;15.85;4.60;;;22.70;99.90;;;;;;4973222;28;20023;-73
2022/08/15 06:39:06;;;;;;;6.22;3.60;;;22.70;99.90;;;;;;4975539;28;20045;-73
2022/08/15 06:41:56;;;;;;;10.02;3.78;;;22.70;99.90;;;;;;4959095;28;20162;-73
2022/08/15 06:44:22;;;;;;;9.75;3.92;;;22.80;99.90;;;;;;4979130;28;20030;-73
2022/08/15 06:46:48;;;;;;;5.85;3.60;;;22.80;99.90;;;;;;4968554;28;20038;-74
2022/08/15 06:49:14;;;;;;;8.20;3.83;;;22.80;99.90;;;;;;4972295;28;20515;-73
2022/08/15 06:51:40;;;;;;;5.82;4.05;;;22.80;99.90;;;;;;4969244;28;20045;-73
2022/08/15 06:54:09;;;;;;;7.97;3.33;;;22.80;99.90;;;;;;4966072;28;20042;-73
2022/08/15 06:56:40;;;;;;;5.93;3.53;;;22.90;99.90;;;;;;4962420;28;20023;-74
2022/08/15 06:59:21;;;;;;;5.60;3.45;;;22.90;99.90;;;;;;4959464;28;20125;-74
2022/08/15 07:02:02;;;;;;;6.28;3.42;;;22.80;99.90;;;;;;4973680;28;20027;-74
2022/08/15 07:04:40;;;;;;;5.90;3.50;;;22.80;99.90;;;;;;4972439;28;20030;-72
2022/08/15 07:07:39;;;;;;;9.10;3.63;;;22.80;99.90;;;;;;4972894;28;20078;-74
2022/08/15 07:10:44;;;;;;;9.52;3.92;;;22.90;99.90;;;;;;4973135;28;20033;-71
2022/08/15 07:13:15;;;;;;;8.20;2.97;;;22.90;99.90;;;;;;4955813;28;20122;-74
2022/08/15 07:15:52;;;;;;;9.00;3.63;;;22.90;99.90;;;;;;4972015;28;20113;-74
2022/08/15 07:18:34;;;;;;;9.73;4.00;;;22.80;99.90;;;;;;4972135;28;20050;-74
2022/08/15 07:21:09;;;;;;;8.30;3.33;;;22.80;99.90;;;;;;4956615;28;20097;-74
2022/08/15 07:23:35;;;;;;;7.22;3.53;;;22.80;99.90;;;;;;4973223;28;20117;-74
2022/08/15 07:26:11;;;;;;;5.18;3.28;;;22.80;99.90;;;;;;4972389;28;20047;-75
2022/08/15 07:28:41;;;;;;;8.50;3.65;;;22.80;99.90;;;;;;4940151;28;20121;-74
2022/08/15 07:31:19;;;;;;;5.03;3.55;;;22.80;99.90;;;;;;4957588;28;20108;-71
2022/08/15 07:33:48;;;;;;;8.38;3.72;;;22.80;99.90;;;;;;4971468;28;20125;-71
2022/08/15 07:36:28;;;;;;;7.88;3.92;;;22.80;99.90;;;;;;4972830;28;20117;-74
2022/08/15 07:38:54;;;;;;;5.47;3.10;;;22.80;99.90;;;;;;4972423;28;20027;-72
2022/08/15 07:41:30;;;;;;;8.57;4.00;;;22.80;99.90;;;;;;4956036;28;20391;-72
2022/08/15 07:44:19;;;;;;;8.48;4.00;;;22.80;99.90;;;;;;4955221;28;20513;-74
2022/08/15 07:47:09;;;;;;;10.27;3.67;;;22.80;99.90;;;;;;4971842;28;20057;-71
2022/08/15 07:49:37;;;;;;;5.75;3.50;;;22.90;99.90;;;;;;4953913;28;20618;-72
2022/08/15 07:52:15;;;;;;;6.80;3.58;;;22.90;99.90;;;;;;4936676;29;20065;-72
2022/08/15 07:54:53;;;;;;;5.88;3.70;;;23.00;99.90;;;;;;4952883;29;20031;-72
2022/08/15 07:57:24;;;;;;;7.88;3.10;;;23.00;99.90;;;;;;4936539;29;20031;-72
2022/08/15 08:00:13;;;;;;;6.28;3.67;;;23.00;99.90;;;;;;4952279;29;20035;-74
2022/08/15 08:02:47;;;;;;;6.05;3.85;;;23.00;99.90;;;;;;4953391;28;20558;-72
2022/08/15 08:05:13;;;;;;;7.22;4.00;;;23.00;99.90;;;;;;4936361;29;20030;-72
2022/08/15 08:07:47;;;;;;;8.43;3.72;;;23.00;99.90;;;;;;4951959;28;20035;-72
2022/08/15 08:10:37;;;;;;;7.50;3.42;;;23.10;99.90;;;;;;4937012;28;20475;-73
2022/08/15 08:13:18;;;;;;;4.95;3.13;;;23.10;99.90;;;;;;4950901;28;20057;-74
2022/08/15 08:15:54;;;;;;;7.78;3.67;;;23.10;99.90;;;;;;4972519;28;20152;-73
2022/08/15 08:18:35;;;;;;;5.03;3.13;;;23.30;99.90;;;;;;4955835;28;20027;-73
2022/08/15 08:21:06;;;;;;;4.70;3.42;;;23.30;99.90;;;;;;4970980;28;20059;-72
2022/08/15 08:23:45;;;;;;;8.05;3.85;;;23.30;99.90;;;;;;4955429;28;20106;-73
2022/08/15 08:26:30;;;;;;;9.80;3.60;;;23.40;99.90;;;;;;4939866;28;20046;-73
2022/08/15 08:29:43;;;;;;;6.97;3.50;;;23.40;99.90;;;;;;4971199;28;20045;-73
2022/08/15 08:32:42;;;;;;;6.18;3.17;;;23.50;99.90;;;;;;4965222;28;20052;-73
2022/08/15 08:35:34;;;;;;;4.68;3.00;;;23.60;99.90;;;;;;4971599;28;20418;-73
2022/08/15 08:38:29;;;;;;;6.93;3.72;;;23.60;99.90;;;;;;4970458;28;20043;-73
2022/08/15 08:44:11;;;;;;;6.20;3.95;;;23.70;99.90;;;;;;4970907;28;20057;-73
2022/08/15 08:46:55;;;;;;;8.15;4.45;;;23.60;99.90;;;;;;4958387;28;20053;-73
2022/08/15 08:49:43;;;;;;;10.80;3.67;;;23.80;99.90;;;;;;4973628;28;20736;-73
2022/08/15 08:52:15;;;;;;;3.90;3.30;;;23.70;99.90;;;;;;4971074;28;20065;-73
2022/08/15 08:55:08;;;;;;;4.68;3.33;;;23.80;99.90;;;;;;4970507;28;20098;-72
2022/08/15 08:57:43;;;;;;;5.60;3.10;;;23.90;99.90;;;;;;4986503;28;20482;-73
2022/08/15 09:00:15;;;;;;;7.50;3.47;;;24.00;99.90;;;;;;4955494;28;20483;-73
2022/08/15 09:03:26;;;;;;;7.82;3.33;;;24.10;99.90;;;;;;4970580;28;20047;-72
2022/08/15 09:05:54;;;;;;;6.90;3.38;;;24.30;99.90;;;;;;4969156;28;20047;-73
2022/08/15 09:08:32;;;;;;;9.98;3.28;;;24.40;99.90;;;;;;4954823;28;20027;-72
2022/08/15 09:11:22;;;;;;;9.65;3.97;;;24.50;99.90;;;;;;4981371;28;20050;-73
2022/08/15 09:13:49;;;;;;;8.52;3.80;;;24.50;99.90;;;;;;4928494;28;20071;-73
2022/08/15 09:16:48;;;;;;;8.45;4.57;;;24.50;99.90;;;;;;4955120;29;20027;-73
2022/08/15 09:19:29;;;;;;;5.47;3.55;;;24.60;99.90;;;;;;4947048;29;20122;-73
2022/08/15 09:21:55;;;;;;;5.65;3.03;;;24.80;99.90;;;;;;4945320;28;20114;-73
2022/08/15 09:24:21;;;;;;;7.50;3.97;;;24.90;99.90;;;;;;4989036;28;20117;-73
2022/08/15 09:26:57;;;;;;;;;;;25.00;99.90;;;;;;4985605;28;20331;-72
2022/08/15 09:29:32;;;;;;;7.75;3.40;;;25.10;99.90;;;;;;4994163;28;20341;-73
2022/08/15 09:32:26;;;;;;;5.05;3.72;;;25.10;99.90;;;;;;4974596;28;20037;-73
2022/08/15 09:35:07;;;;;;;5.63;3.25;;;25.10;99.90;;;;;;4971838;28;20126;-73
2022/08/15 09:38:10;;;;;;;12.48;3.10;;;25.10;99.90;;;;;;4973865;28;20037;-73
2022/08/15 09:41:37;;;;;;;5.75;3.55;;;25.10;99.90;;;;;;4975224;28;20468;-73
2022/08/15 09:44:44;;;;;;;4.97;3.33;;;25.10;99.90;;;;;;4966761;28;20107;-73
2022/08/15 09:47:31;;;;;;;4.63;3.13;;;25.10;99.90;;;;;;4970557;28;20126;-73
2022/08/15 09:50:30;;;;;;;5.50;3.30;;;25.30;99.90;;;;;;4967899;28;20490;-73
2022/08/15 09:53:47;;;;;;;6.55;3.25;;;25.30;99.90;;;;;;4969555;28;20129;-73
2022/08/15 09:56:17;;;;;;;4.53;3.40;;;25.30;99.90;;;;;;4954329;28;20047;-73
2022/08/15 09:59:07;;;;;;;6.15;3.15;;;25.40;99.90;;;;;;4955869;28;20070;-73
2022/08/15 10:02:21;;;;;;;6.38;3.42;;;25.30;99.90;;;;;;4954657;29;20495;-74
2022/08/15 10:04:49;;;;;;;8.77;3.40;;;25.40;99.90;;;;;;4923773;29;20107;-74
2022/08/15 10:07:15;;;;;;;5.75;3.25;;;25.40;99.90;;;;;;4951758;28;20142;-74
2022/08/15 10:10:00;;;;;;;4.78;3.13;;;25.40;99.90;;;;;;4970752;28;20138;-73
2022/08/15 10:12:26;;;;;;;11.48;3.80;;;25.40;99.90;;;;;;4954483;29;20035;-73
2022/08/15 10:14:52;;;;;;;5.50;3.17;;;25.40;99.90;;;;;;4938230;29;20047;-74
2022/08/15 10:17:37;;;;;;;7.10;3.10;;;25.30;99.90;;;;;;4955102;28;20031;-73
2022/08/15 10:20:26;;;;;;;7.28;3.47;;;25.30;99.90;;;;;;4955227;29;20047;-74
2022/08/15 10:22:59;;;;;;;5.65;3.65;;;25.40;99.90;;;;;;4951697;28;20135;-74
2022/08/15 10:25:28;;;;;;;3.92;2.60;;;25.50;99.90;;;;;;4945180;28;20106;-74
2022/08/15 10:28:07;;;;;;;6.75;2.60;;;25.50;99.90;;;;;;4974552;28;20046;-74
2022/08/15 10:30:46;;;;;;;3.65;3.08;;;25.60;99.10;;;;;;4973517;28;20117;-74
2022/08/15 10:33:41;;;;;;;5.30;2.60;;;25.70;97.50;;;;;;4959422;28;20031;-74
2022/08/15 10:36:16;;;;;;;5.25;2.72;;;25.70;95.80;;;;;;4958052;28;20041;-74
2022/08/15 10:38:48;;;;;;;5.53;3.15;;;25.80;94.90;;;;;;4974487;28;20027;-74
2022/08/15 10:41:36;;;;;;;7.55;3.42;;;25.80;95.30;;;;;;4957953;28;20026;-74
2022/08/15 10:44:53;;;;;;;4.07;3.05;;;25.80;96.20;;;;;;4973729;28;20023;-73
2022/08/15 10:47:47;;;;;;;7.35;3.03;;;25.90;94.90;;;;;;4949529;28;20534;-74
2022/08/15 10:50:48;;;;;;;8.63;4.10;;;25.90;96.40;;;;;;4983570;28;20030;-74
2022/08/15 10:53:43;;;;;;;5.63;3.13;;;26.00;95.80;;;;;;4984483;28;20465;-74
2022/08/15 10:56:33;;;;;;;6.10;3.45;;;26.00;96.70;;;;;;4983974;28;20077;-73
2022/08/15 10:59:12;;;;;;;7.93;3.60;;;26.10;96.10;;;;;;4974283;28;20125;-74
2022/08/15 11:01:38;;;;;;;7.00;3.38;;;26.10;96.40;;;;;;4964637;28;20058;-73
2022/08/15 11:04:09;;;;;;;6.05;3.50;;;26.10;96.60;;;;;;4966297;28;20561;-74
2022/08/15 11:06:45;;;;;;;3.97;3.30;;;26.20;96.90;;;;;;4973032;28;20549;-74
2022/08/15 11:09:17;;;;;;;7.03;3.80;;;26.30;94.70;;;;;;4973041;28;20070;-74
2022/08/15 11:11:58;;;;;;;6.00;3.70;;;26.30;93.90;;;;;;4969498;28;20263;-74
2022/08/15 11:14:33;;;;;;;5.65;3.53;;;26.30;94.70;;;;;;4967183;28;20034;-74
2022/08/15 11:17:00;;;;;;;6.07;3.33;;;26.40;95.70;;;;;;4968669;28;20020;-73
2022/08/15 11:19:57;;;;;;;5.40;3.67;;;26.50;95.70;;;;;;4972592;28;20027;-74
2022/08/15 11:22:34;;;;;;;5.23;3.70;;;26.70;96.60;;;;;;4970964;28;20026;-74
2022/08/15 11:25:11;;;;;;;5.63;3.83;;;26.90;95.70;;;;;;4991531;28;20080;-75
2022/08/15 11:27:36;;;;;;;7.82;3.55;;;27.10;96.80;;;;;;4992341;28;20039;-75
2022/08/15 11:30:06;;;;;;;5.85;3.13;;;27.30;95.50;;;;;;4991744;28;20545;-75
2022/08/15 11:32:37;;;;;;;7.63;3.80;;;27.40;95.40;;;;;;4976306;28;20034;-75
2022/08/15 11:35:29;;;;;;;5.93;3.53;;;27.50;90.20;;;;;;4975768;28;20041;-75
2022/08/15 11:37:58;;;;;;;5.07;3.53;;;27.50;90.90;;;;;;4992175;28;20041;-75
2022/08/15 11:40:26;;;;;;;3.88;3.00;;;27.70;91.00;;;;;;4983578;28;20395;-75
2022/08/15 11:42:52;;;;;;;6.28;3.92;;;28.00;89.40;;;;;;4973500;28;20023;-75
2022/08/15 11:45:21;;;;;;;7.45;3.70;;;28.10;81.30;;;;;;4955715;28;20628;-75
2022/08/15 11:47:53;;;;;;;9.68;3.83;;;28.00;80.80;;;;;;4973419;28;20035;-74
2022/08/15 11:50:37;;;;;;;6.85;2.83;;;27.90;77.30;;;;;;4957539;28;20121;-75
2022/08/15 11:53:06;;;;;;;4.70;2.95;;;27.90;76.80;;;;;;4960507;28;20033;-75
2022/08/15 11:55:32;;;;;;;5.35;3.53;;;27.80;78.90;;;;;;4971631;28;20038;-75
2022/08/15 11:58:12;;;;;;;6.75;2.88;;;27.70;80.60;;;;;;4954041;28;20481;-75
2022/08/15 12:00:43;;;;;;;3.40;2.92;;;27.60;80.60;;;;;;4954128;29;20452;-75
2022/08/15 12:03:24;;;;;;;6.85;2.63;;;27.60;79.70;;;;;;4952886;28;20062;-74
2022/08/15 12:05:52;;;;;;;5.95;3.55;;;27.60;81.00;;;;;;4954194;29;20031;-75
2022/08/15 12:08:32;;;;;;;5.88;3.67;;;27.50;82.40;;;;;;4937178;29;20503;-74
2022/08/15 12:11:25;;;;;;;6.05;3.03;;;27.50;83.40;;;;;;4953262;28;20122;-74
2022/08/15 12:13:56;;;;;;;4.78;2.97;;;27.50;84.70;;;;;;4934178;29;20063;-75
2022/08/15 12:16:40;;;;;;;7.13;3.25;;;27.60;89.10;;;;;;4953150;28;20051;-75
2022/08/15 12:19:46;;;;;;;4.18;3.15;;;27.80;86.40;;;;;;4936713;29;20035;-75
2022/08/15 12:22:30;;;;;;;3.63;3.25;;;28.10;81.90;;;;;;4977719;28;20092;-75
2022/08/15 12:24:56;;;;;;;3.63;2.70;;;28.10;78.40;;;;;;4941463;28;20046;-75
2022/08/15 12:27:22;;;;;;;5.70;3.63;;;28.00;79.50;;;;;;4955824;28;20030;-75
2022/08/15 12:29:48;;;;;;;6.10;2.70;;;27.90;80.30;;;;;;4955563;28;20058;-75
2022/08/15 12:32:13;;;;;;;6.38;2.78;;;28.00;84.20;;;;;;4956930;28;20106;-75
2022/08/15 12:34:48;;;;;;;7.07;2.45;;;27.90;74.40;;;;;;4963099;28;20034;-75
2022/08/15 12:37:17;;;;;;;5.28;2.55;;;28.00;76.80;;;;;;4961263;28;20027;-75
2022/08/15 12:39:49;;;;;;;3.22;2.15;;;28.20;77.30;;;;;;4971418;28;20033;-75
2022/08/15 12:42:27;;;;;;;7.30;2.40;;;28.60;74.10;;;;;;4979154;28;20054;-75
2022/08/15 12:44:55;;;;;;;4.93;2.30;;;29.00;71.90;;;;;;4989459;28;20031;-74
2022/08/15 12:47:22;;;;;;;7.32;3.10;;;29.40;73.30;;;;;;4967442;28;20121;-75
2022/08/15 12:49:49;;;;;;;4.45;2.15;;;29.50;67.80;;;;;;4970668;28;20035;-76
2022/08/15 12:52:17;;;;;;;4.55;2.80;;;29.50;69.10;;;;;;4972476;28;20351;-73
2022/08/15 12:54:43;;;;;;;3.70;2.45;;;29.50;67.40;;;;;;4970796;28;20053;-75
2022/08/15 12:57:09;;;;;;;3.42;2.42;;;29.30;67.70;;;;;;4971214;28;20491;-74
2022/08/15 12:59:35;;;;;;;7.07;2.30;;;29.40;66.40;;;;;;4971112;28;20031;-74
2022/08/15 13:02:00;;;;;;;4.13;2.35;;;29.70;67.40;;;;;;4971252;28;20515;-74
2022/08/15 13:04:26;;;;;;;5.47;2.55;;;30.30;68.20;;;;;;4970886;28;20042;-74
2022/08/15 13:06:55;;;;;;;4.47;2.30;;;31.00;63.10;;;;;;4972278;28;20530;-74
2022/08/15 13:09:22;;;;;;;2.60;2.40;;;31.60;63.40;;;;;;4970922;28;20042;-74
2022/08/15 13:11:47;;;;;;;7.15;2.33;;;32.10;58.20;;;;;;4972179;28;20023;-74
2022/08/15 13:14:15;;;;;;;3.33;2.40;;;32.10;59.30;;;;;;4970648;28;20039;-74
2022/08/15 13:16:42;;;;;;;4.80;2.38;;;32.50;61.40;;;;;;4976276;28;20038;-74
2022/08/15 13:19:15;;;;;;;3.83;2.30;;;33.10;62.90;;;;;;4955186;28;20498;-74
2022/08/15 13:24:25;;;;;;;5.20;2.85;;;32.20;59.50;;;;;;4970522;28;20151;-74
2022/08/15 13:26:51;;;;;;;4.88;2.30;;;31.80;62.90;;;;;;4971852;28;20070;-74
2022/08/15 13:29:18;;;;;;;3.92;2.63;;;31.50;61.40;;;;;;4970787;28;20479;-74
2022/08/15 13:31:46;;;;;;;3.35;2.30;;;32.00;61.00;;;;;;4970843;28;20101;-74